createdAt,value
2019-03-27T00:01:36.196Z,21.73
2019-03-27T00:07:41.039Z,21.85
2019-03-27T00:13:45.862Z,21.50
2019-03-27T00:19:51.041Z,20.88
2019-03-27T00:25:55.815Z,22.62
2019-03-27T00:32:00.685Z,22.48
2019-03-27T00:38:05.635Z,21.62
2019-03-27T00:44:10.409Z,21.93
2019-03-27T00:50:15.351Z,21.85
2019-03-27T00:56:20.221Z,22.10
2019-03-27T01:02:24.981Z,22.05
2019-03-27T01:08:29.757Z,22.45
2019-03-27T01:14:34.513Z,22.82
2019-03-27T01:20:39.366Z,22.77
2019-03-27T01:26:44.185Z,23.25
2019-03-27T01:32:48.941Z,22.82
2019-03-27T01:38:53.705Z,22.87
2019-03-27T01:44:58.570Z,22.55
2019-03-27T01:51:03.419Z,23.27
2019-03-27T01:57:08.253Z,22.93
2019-03-27T02:03:13.086Z,23.42
2019-03-27T02:09:17.856Z,22.85
2019-03-27T02:15:22.722Z,24.15
2019-03-27T02:21:27.622Z,24.30
2019-03-27T02:27:32.507Z,24.15
2019-03-27T02:33:37.251Z,24.52
2019-03-27T02:39:42.124Z,24.30
2019-03-27T02:45:46.866Z,25.65
2019-03-27T02:51:52.138Z,24.67
2019-03-27T02:57:56.950Z,24.25
2019-03-27T03:04:01.907Z,23.38
2019-03-27T03:10:09.081Z,24.23
2019-03-27T03:16:13.928Z,24.47
2019-03-27T03:22:18.735Z,24.18
2019-03-27T03:28:23.565Z,25.20
2019-03-27T03:34:28.340Z,23.32
2019-03-27T03:40:33.155Z,25.70
2019-03-27T03:46:37.908Z,24.95
2019-03-27T03:52:45.840Z,25.32
2019-03-27T03:58:50.107Z,25.32
2019-03-27T04:04:56.535Z,25.17
2019-03-27T04:11:01.282Z,25.75
2019-03-27T04:17:16.856Z,25.35
2019-03-27T04:23:12.640Z,25.43
2019-03-27T04:29:17.454Z,26.33
2019-03-27T04:35:22.535Z,26.20
2019-03-27T04:41:27.265Z,24.98
2019-03-27T04:47:32.743Z,26.00
2019-03-27T04:53:37.629Z,26.50
2019-03-27T04:59:42.339Z,25.30
2019-03-27T05:05:47.083Z,24.50
2019-03-27T05:11:51.873Z,25.17
2019-03-27T05:17:56.603Z,24.82
2019-03-27T05:24:01.323Z,24.40
2019-03-27T05:30:07.068Z,25.30
2019-03-27T05:36:11.887Z,26.37
2019-03-27T05:42:16.739Z,24.60
2019-03-27T05:48:21.481Z,38.98
2019-03-27T05:54:26.316Z,63.40
2019-03-27T06:00:33.368Z,84.50
2019-03-27T06:06:37.576Z,34.33
2019-03-27T06:12:42.325Z,36.17
2019-03-27T06:18:47.071Z,33.33
2019-03-27T06:24:51.794Z,34.00
2019-03-27T06:30:56.618Z,31.05
2019-03-27T06:37:01.417Z,30.68
2019-03-27T06:43:06.420Z,30.68
2019-03-27T06:49:11.166Z,29.63
2019-03-27T06:55:15.956Z,30.48
2019-03-27T07:01:20.730Z,31.70
2019-03-27T07:07:25.488Z,31.52
2019-03-27T07:13:30.232Z,31.00
2019-03-27T07:19:34.994Z,30.27
2019-03-27T07:25:39.756Z,31.93
2019-03-27T07:31:44.811Z,29.70
2019-03-27T07:37:49.668Z,28.83
2019-03-27T07:43:54.765Z,25.68
2019-03-27T07:49:59.682Z,28.67
2019-03-27T07:56:04.681Z,27.25
2019-03-27T08:02:09.590Z,27.07
2019-03-27T08:08:14.405Z,25.55
2019-03-27T08:14:19.175Z,26.68
2019-03-27T08:20:24.011Z,22.52
2019-03-27T08:26:28.782Z,21.50
2019-03-27T08:32:33.627Z,17.17
2019-03-27T08:38:38.502Z,16.75
2019-03-27T08:44:43.378Z,18.32
2019-03-27T08:50:48.215Z,21.77
2019-03-27T08:56:53.049Z,17.77
2019-03-27T09:02:57.799Z,12.85
2019-03-27T09:09:02.635Z,10.90
2019-03-27T09:15:08.214Z,10.60
2019-03-27T09:21:13.339Z,9.28
2019-03-27T09:27:18.271Z,9.70
2019-03-27T09:33:23.225Z,9.00
2019-03-27T09:39:27.939Z,8.88
2019-03-27T09:45:32.677Z,9.13
2019-03-27T09:51:37.449Z,12.93
2019-03-27T09:57:42.280Z,10.72
2019-03-27T10:03:47.051Z,10.45
2019-03-27T10:09:52.077Z,11.95
2019-03-27T10:15:56.953Z,10.32
2019-03-27T10:22:01.888Z,9.30
2019-03-27T10:28:06.664Z,9.80
2019-03-27T10:34:11.633Z,11.15
2019-03-27T10:40:16.877Z,12.37
2019-03-27T10:46:21.611Z,10.98
2019-03-27T10:52:26.427Z,10.68
2019-03-27T10:58:31.195Z,10.30
2019-03-27T11:04:35.988Z,10.93
2019-03-27T11:10:40.808Z,10.60
2019-03-27T11:16:45.782Z,11.57
2019-03-27T11:22:50.737Z,9.48
2019-03-27T11:28:55.622Z,10.50
2019-03-27T11:35:00.500Z,10.72
2019-03-27T11:41:08.033Z,10.55
2019-03-27T11:47:13.506Z,10.75
2019-03-27T11:53:18.509Z,10.20
2019-03-27T11:59:23.345Z,11.25
2019-03-27T12:05:28.174Z,12.20
2019-03-27T12:11:33.092Z,10.32
2019-03-27T12:17:37.952Z,10.40
2019-03-27T12:23:43.073Z,10.80
2019-03-27T12:29:48.778Z,10.65
2019-03-27T12:35:53.558Z,10.28
2019-03-27T12:41:58.424Z,10.10
2019-03-27T12:48:03.297Z,10.65
2019-03-27T12:54:08.143Z,9.33
2019-03-27T13:00:13.137Z,9.70
2019-03-27T13:06:18.268Z,10.23
2019-03-27T13:12:23.920Z,10.55
2019-03-27T13:18:28.794Z,10.75
2019-03-27T13:24:33.555Z,10.95
2019-03-27T13:30:38.429Z,11.08
2019-03-27T13:36:47.795Z,11.20
2019-03-27T13:42:52.571Z,10.40
2019-03-27T13:48:57.706Z,10.10
2019-03-27T13:55:02.576Z,9.78
2019-03-27T14:01:08.902Z,10.45
2019-03-27T14:07:14.299Z,10.90
2019-03-27T14:13:19.228Z,12.07
2019-03-27T14:19:24.080Z,12.50
2019-03-27T14:25:28.961Z,12.68
2019-03-27T14:31:33.763Z,11.60
2019-03-27T14:37:38.764Z,11.43
2019-03-27T14:43:43.602Z,12.88
2019-03-27T14:49:48.611Z,13.35
2019-03-27T14:55:53.454Z,12.88
2019-03-27T15:01:58.429Z,13.28
2019-03-27T15:08:04.322Z,13.98
2019-03-27T15:14:09.518Z,14.53
2019-03-27T15:20:14.590Z,13.83
2019-03-27T15:26:19.432Z,14.45
2019-03-27T15:32:24.506Z,14.85
2019-03-27T15:38:29.602Z,14.80
2019-03-27T15:44:34.607Z,15.20
2019-03-27T15:50:39.626Z,14.50
2019-03-27T15:56:44.786Z,15.00
2019-03-27T16:02:49.620Z,13.22
2019-03-27T16:08:54.472Z,12.88
2019-03-27T16:14:59.274Z,13.05
2019-03-27T16:21:04.648Z,13.32
2019-03-27T16:27:09.588Z,13.05
2019-03-27T16:33:14.681Z,12.07
2019-03-27T16:39:19.710Z,12.35
2019-03-27T16:45:24.707Z,11.43
2019-03-27T16:51:29.647Z,11.75
2019-03-27T16:57:34.843Z,11.28
2019-03-27T17:03:39.719Z,12.10
2019-03-27T17:09:44.512Z,13.35
2019-03-27T17:15:49.381Z,12.73
2019-03-27T17:21:54.452Z,12.25
2019-03-27T17:27:59.330Z,13.22
2019-03-27T17:34:04.456Z,13.43
2019-03-27T17:40:09.468Z,14.23
2019-03-27T17:46:14.365Z,15.45
2019-03-27T17:52:19.128Z,17.32
2019-03-27T17:58:23.911Z,16.25
2019-03-27T18:04:28.817Z,16.95
2019-03-27T18:10:33.697Z,17.00
2019-03-27T18:16:38.572Z,17.02
2019-03-27T18:22:43.685Z,20.10
2019-03-27T18:28:48.407Z,20.12
2019-03-27T18:34:53.462Z,19.92
2019-03-27T18:40:58.319Z,19.10
2019-03-27T18:47:03.078Z,18.60
2019-03-27T18:53:07.922Z,19.82
2019-03-27T18:59:12.782Z,19.52
2019-03-27T19:05:18.537Z,20.68
2019-03-27T19:11:23.349Z,19.85
2019-03-27T19:17:28.166Z,21.62
2019-03-27T19:23:32.930Z,21.85
2019-03-27T19:29:37.814Z,22.13
2019-03-27T19:35:42.714Z,20.65
2019-03-27T19:41:47.671Z,22.50
2019-03-27T19:47:52.593Z,22.52
2019-03-27T19:53:57.505Z,25.50
2019-03-27T20:00:02.599Z,25.77
2019-03-27T20:06:07.410Z,26.27
2019-03-27T20:12:12.824Z,26.80
2019-03-27T20:18:17.902Z,27.30
2019-03-27T20:24:22.697Z,27.42
2019-03-27T20:30:27.567Z,30.08
2019-03-27T20:36:32.437Z,31.25
2019-03-27T20:42:38.005Z,32.17
2019-03-27T20:48:43.187Z,32.42
2019-03-27T20:54:55.222Z,33.10
2019-03-27T21:01:01.508Z,30.08
2019-03-27T21:07:07.758Z,29.12
2019-03-27T21:13:13.398Z,28.98
2019-03-27T21:19:27.215Z,27.93
2019-03-27T21:25:32.116Z,28.65
2019-03-27T21:31:36.915Z,28.38
2019-03-27T21:37:41.831Z,29.32
2019-03-27T21:43:46.727Z,29.23
2019-03-27T21:49:51.934Z,31.00
2019-03-27T21:55:56.801Z,30.57
2019-03-27T22:02:02.090Z,31.45
2019-03-27T22:08:07.473Z,31.50
2019-03-27T22:14:12.391Z,30.32
2019-03-27T22:20:17.495Z,30.82
2019-03-27T22:26:22.718Z,31.17
2019-03-27T22:32:27.621Z,29.42
2019-03-27T22:38:32.537Z,30.17
2019-03-27T22:44:37.502Z,29.52
2019-03-27T22:50:43.354Z,27.90
2019-03-27T22:56:48.334Z,28.17
2019-03-27T23:02:53.195Z,28.62
2019-03-27T23:08:58.163Z,28.12
2019-03-27T23:15:19.432Z,28.05
2019-03-27T23:21:24.882Z,28.50
2019-03-27T23:27:30.112Z,27.52
2019-03-27T23:33:35.158Z,27.67
2019-03-27T23:39:40.162Z,28.23
2019-03-27T23:45:45.190Z,29.20
2019-03-27T23:51:50.112Z,29.87
2019-03-27T23:57:54.992Z,29.60
